Time;durP1;ratioP1;P1;durP2;ratioP2;P2;SDS_P1;SDS_P2;PMS_P1;PMS_P2;Temp;Humidity;BMP_temperature;BMP_pressure;BME280_temperature;BME280_humidity;BME280_pressure;Samples;Min_cycle;Max_cycle;Signal;HPM_P1;HPM_P2
2021/05/22 00:01:22;;;;;;;4.30;3.00;;;;;;;23.95;42.44;95199.66;4954691;28;20038;-72
2021/05/22 00:03:48;;;;;;;3.83;2.90;;;;;;;23.92;42.72;95198.66;4970622;28;20047;-72
2021/05/22 00:06:14;;;;;;;3.50;2.97;;;;;;;23.92;42.60;95187.75;4972118;28;20537;-72
2021/05/22 00:08:39;;;;;;;3.40;2.88;;;;;;;23.91;42.70;95191.72;4971760;28;20039;-72
2021/05/22 00:11:05;;;;;;;4.15;3.10;;;;;;;23.89;42.50;95199.69;4954691;28;20034;-72
2021/05/22 00:13:30;;;;;;;4.43;3.42;;;;;;;23.90;42.98;95190.25;4970292;28;20516;-72
2021/05/22 00:15:56;;;;;;;4.82;3.35;;;;;;;23.89;42.74;95183.31;4954201;28;20026;-72
2021/05/22 00:18:21;;;;;;;4.07;3.05;;;;;;;23.85;42.86;95175.94;4971452;28;20034;-72
2021/05/22 00:20:47;;;;;;;3.45;2.90;;;;;;;23.87;42.75;95180.38;4971998;28;20133;-72
2021/05/22 00:23:14;;;;;;;4.22;3.20;;;;;;;23.87;42.89;95174.91;4971405;28;20031;-72
2021/05/22 00:25:39;;;;;;;3.90;3.10;;;;;;;23.86;42.79;95178.88;4972064;28;20030;-72
2021/05/22 00:28:05;;;;;;;3.83;2.72;;;;;;;23.86;42.86;95171.97;4971764;28;20035;-72
2021/05/22 00:30:30;;;;;;;8.35;2.90;;;;;;;23.85;42.99;95165.00;4971644;28;20112;-72
2021/05/22 00:32:56;;;;;;;3.95;2.85;;;;;;;23.85;42.88;95170.47;4971470;28;20026;-72
2021/05/22 00:35:21;;;;;;;4.32;3.10;;;;;;;23.85;42.98;95176.66;4971394;28;20604;-72
2021/05/22 00:37:47;;;;;;;5.93;2.90;;;;;;;23.82;42.90;95171.47;4971798;28;20454;-72
2021/05/22 00:40:14;;;;;;;4.53;3.10;;;;;;;23.81;42.59;95180.91;4971492;28;20046;-72
2021/05/22 00:42:40;;;;;;;3.58;2.97;;;;;;;23.67;42.77;95152.03;4971345;28;20034;-72
2021/05/22 00:45:11;;;;;;;3.97;3.00;;;;;;;23.81;42.55;95170.00;4953953;28;20033;-72
2021/05/22 00:47:44;;;;;;;4.22;2.70;;;;;;;23.79;42.75;95167.03;4971136;28;20170;-72
2021/05/22 00:50:12;;;;;;;4.50;3.22;;;;;;;23.78;43.25;95171.00;4955199;28;20033;-72
2021/05/22 00:52:38;;;;;;;3.95;3.30;;;;;;;23.71;42.73;95171.56;4971037;28;20049;-72
2021/05/22 00:55:04;;;;;;;3.72;2.95;;;;;;;23.77;42.95;95169.56;4953666;28;20542;-72
2021/05/22 00:57:30;;;;;;;6.05;3.25;;;;;;;23.69;42.89;95154.97;4970999;28;20521;-72
2021/05/22 00:59:56;;;;;;;4.13;2.95;;;;;;;23.76;42.77;95168.06;4954110;28;20023;-72
2021/05/22 01:02:26;;;;;;;3.55;2.83;;;;;;;23.73;43.42;95163.63;4970554;28;20487;-72
2021/05/22 01:04:51;;;;;;;4.25;2.80;;;;;;;23.71;42.90;95158.69;4952240;28;20059;-72
2021/05/22 01:07:17;;;;;;;3.95;3.00;;;;;;;23.74;42.82;95148.75;4937546;28;20085;-72
2021/05/22 01:09:43;;;;;;;3.78;3.03;;;;;;;23.70;43.09;95149.00;4953666;28;20328;-72
2021/05/22 01:12:08;;;;;;;4.32;2.97;;;;;;;23.68;42.99;95167.88;4937753;28;20019;-72
2021/05/22 01:15:03;;;;;;;4.13;2.92;;;;;;;23.70;43.05;95151.72;4937521;28;20558;-72
2021/05/22 01:17:28;;;;;;;3.97;2.67;;;;;;;23.66;43.36;95142.34;4965205;28;20474;-72
2021/05/22 01:20:00;;;;;;;4.63;3.00;;;;;;;23.68;42.86;95156.97;4953659;28;20113;-71
2021/05/22 01:22:27;;;;;;;3.95;3.15;;;;;;;23.67;42.76;95154.75;4970362;28;20117;-71
2021/05/22 01:24:59;;;;;;;3.40;2.70;;;;;;;23.68;43.23;95167.13;4937338;28;20022;-72
2021/05/22 01:27:24;;;;;;;3.45;2.70;;;;;;;23.67;42.94;95154.75;4937561;28;20036;-72
2021/05/22 01:29:50;;;;;;;4.15;3.05;;;;;;;23.67;43.36;95165.66;4969151;28;20477;-71
2021/05/22 01:32:15;;;;;;;4.20;3.03;;;;;;;23.52;43.08;95143.44;4952868;28;20025;-72
2021/05/22 01:34:41;;;;;;;4.15;3.00;;;;;;;23.46;42.92;95134.56;4952745;28;20113;-72
2021/05/22 01:37:06;;;;;;;3.85;2.85;;;;;;;23.63;43.30;95154.25;4953417;28;20019;-72
2021/05/22 01:39:32;;;;;;;3.53;2.80;;;;;;;23.68;43.08;95167.13;4970724;28;20023;-72
2021/05/22 01:41:57;;;;;;;3.88;2.65;;;;;;;23.40;43.06;95136.56;4969041;28;20037;-71
2021/05/22 01:44:24;;;;;;;4.10;2.67;;;;;;;23.53;42.95;95150.38;4952677;28;20038;-72
2021/05/22 01:46:50;;;;;;;4.80;3.13;;;;;;;23.64;43.28;95163.94;4952493;28;20444;-71
2021/05/22 01:49:15;;;;;;;4.30;3.05;;;;;;;23.65;43.01;95162.69;4969258;28;20026;-72
2021/05/22 01:51:41;;;;;;;3.67;2.65;;;;;;;23.63;42.99;95167.88;4952624;28;20515;-72
2021/05/22 01:54:07;;;;;;;4.65;2.63;;;;;;;23.61;42.89;95173.09;4968679;28;20054;-72
2021/05/22 01:56:33;;;;;;;4.35;3.28;;;;;;;23.59;43.25;95170.88;4953122;28;20066;-72
2021/05/22 01:58:59;;;;;;;3.80;3.03;;;;;;;23.61;43.32;95173.09;4952632;28;20510;-72
2021/05/22 02:01:26;;;;;;;3.55;2.75;;;;;;;23.49;43.35;95149.88;4936475;28;20039;-72
2021/05/22 02:03:51;;;;;;;3.72;2.85;;;;;;;23.60;43.50;95171.59;4952298;28;20074;-71
2021/05/22 02:06:22;;;;;;;3.70;2.67;;;;;;;23.58;42.89;95174.13;4952835;28;20090;-72
2021/05/22 02:08:48;;;;;;;3.88;2.42;;;;;;;23.59;43.22;95170.16;4933432;29;20031;-72
2021/05/22 02:11:13;;;;;;;4.03;3.20;;;;;;;23.47;43.42;95141.50;4917694;29;20482;-72
2021/05/22 02:13:39;;;;;;;3.50;2.70;;;;;;;23.41;42.88;95138.06;4933020;29;20603;-72
2021/05/22 02:16:04;;;;;;;4.15;2.70;;;;;;;23.57;44.19;95156.25;4933101;29;20430;-73
2021/05/22 02:18:31;;;;;;;3.72;2.75;;;;;;;23.56;43.18;95154.81;4917573;29;20053;-72
2021/05/22 02:20:58;;;;;;;3.13;2.53;;;;;;;23.56;43.10;95149.34;4950242;29;20514;-72
2021/05/22 02:23:23;;;;;;;3.78;2.35;;;;;;;23.52;43.64;95154.34;4916736;29;20110;-72
2021/05/22 02:25:54;;;;;;;3.45;2.75;;;;;;;23.44;43.52;95137.06;4933418;29;20042;-72
2021/05/22 02:28:19;;;;;;;3.53;2.70;;;;;;;23.56;43.29;95149.34;4933240;29;20113;-72
2021/05/22 02:30:45;;;;;;;3.83;2.88;;;;;;;23.55;43.19;95153.31;4950527;29;20067;-72
2021/05/22 02:33:11;;;;;;;3.95;2.75;;;;;;;23.54;43.21;95149.09;4933009;29;20031;-72
2021/05/22 02:35:39;;;;;;;3.60;2.80;;;;;;;23.52;43.25;95143.44;4932899;29;20495;-72
2021/05/22 02:38:05;;;;;;;3.67;2.70;;;;;;;23.51;43.33;95152.84;4950786;28;20038;-72
2021/05/22 02:40:31;;;;;;;3.60;2.55;;;;;;;23.53;43.77;95161.28;4936293;28;20090;-72
2021/05/22 02:42:59;;;;;;;3.92;2.95;;;;;;;23.51;42.86;95174.66;4969073;28;20080;-72
2021/05/22 02:45:25;;;;;;;3.90;3.00;;;;;;;23.51;44.06;95152.84;4951600;28;20031;-72
2021/05/22 02:47:51;;;;;;;3.55;2.50;;;;;;;23.27;43.06;95122.78;4951992;28;20573;-71
2021/05/22 02:50:17;;;;;;;3.10;2.40;;;;;;;23.51;42.87;95163.75;4935241;28;20030;-72
2021/05/22 02:52:42;;;;;;;4.13;2.97;;;;;;;23.49;43.04;95160.78;4951684;28;20027;-72
2021/05/22 02:55:09;;;;;;;3.40;2.67;;;;;;;23.51;43.13;95163.75;4935576;28;20027;-72
2021/05/22 02:57:34;;;;;;;3.28;2.67;;;;;;;23.48;43.17;95160.06;4935368;28;20035;-71
2021/05/22 03:00:00;;;;;;;3.28;2.65;;;;;;;23.34;43.34;95149.50;4950966;28;20057;-72
2021/05/22 03:02:25;;;;;;;3.47;2.50;;;;;;;23.40;43.54;95169.28;4951697;28;20023;-72
2021/05/22 03:04:51;;;;;;;3.88;2.60;;;;;;;23.34;43.20;95154.22;4951533;28;20046;-72
2021/05/22 03:07:18;;;;;;;3.42;2.60;;;;;;;23.18;43.17;95131.25;4951800;28;20030;-72
2021/05/22 03:09:44;;;;;;;5.35;2.72;;;;;;;23.50;42.54;95173.19;4951830;28;20532;-71
2021/05/22 03:12:09;;;;;;;3.50;2.75;;;;;;;23.40;41.85;95170.00;4951942;28;20030;-70
2021/05/22 03:14:35;;;;;;;4.57;3.08;;;;;;;23.25;41.97;95163.41;4952994;28;20023;-70
2021/05/22 03:17:00;;;;;;;5.88;3.47;;;;;;;23.15;42.13;95175.88;4981250;28;20077;-70
2021/05/22 03:19:26;;;;;;;5.18;3.50;;;;;;;23.02;43.00;95172.97;4953649;28;20077;-71
2021/05/22 03:21:51;;;;;;;4.13;3.47;;;;;;;22.91;43.16;95189.34;4951250;28;20097;-70
2021/05/22 03:24:17;;;;;;;6.88;3.25;;;;;;;22.87;42.92;95187.34;4968923;28;20570;-70
2021/05/22 03:26:42;;;;;;;5.22;3.30;;;;;;;22.84;42.96;95193.81;4968968;28;20030;-70
2021/05/22 03:29:08;;;;;;;6.07;3.28;;;;;;;22.79;42.74;95208.19;4968834;28;20027;-71
2021/05/22 03:31:34;;;;;;;4.53;3.50;;;;;;;22.74;43.18;95217.84;4968901;28;20073;-72
2021/05/22 03:33:59;;;;;;;4.78;3.47;;;;;;;22.79;43.01;95219.06;4966622;28;20483;-71
2021/05/22 03:36:24;;;;;;;5.93;3.35;;;;;;;22.78;43.32;95212.16;4968670;28;20022;-72
2021/05/22 03:38:50;;;;;;;4.22;2.95;;;;;;;22.80;42.56;95215.13;4970883;28;20038;-71
2021/05/22 03:41:16;;;;;;;3.50;3.00;;;;;;;22.91;41.36;95189.34;4969709;28;20050;-71
2021/05/22 03:43:41;;;;;;;4.10;3.30;;;;;;;23.23;41.14;95225.88;4950734;28;20031;-69
2021/05/22 03:46:07;;;;;;;3.97;3.25;;;;;;;23.31;40.54;95232.25;4964482;28;20479;-72
2021/05/22 03:48:32;;;;;;;4.63;3.55;;;;;;;23.36;40.28;95233.47;4967058;28;20094;-70
2021/05/22 03:50:57;;;;;;;5.15;3.40;;;;;;;23.41;40.32;95231.47;4968679;28;20026;-70
2021/05/22 03:53:23;;;;;;;5.20;3.40;;;;;;;23.45;40.14;95236.63;4968357;28;20022;-70
2021/05/22 03:55:49;;;;;;;4.10;3.05;;;;;;;23.51;40.16;95248.25;4972285;28;20022;-70
2021/05/22 03:58:14;;;;;;;4.20;3.20;;;;;;;23.53;40.05;95243.03;4972499;28;20030;-71
2021/05/22 04:00:40;;;;;;;4.03;3.60;;;;;;;23.56;39.88;95242.03;4970398;28;20039;-70
2021/05/22 04:03:06;;;;;;;4.53;3.60;;;;;;;23.58;39.74;95240.28;4971586;28;20145;-70
2021/05/22 04:05:33;;;;;;;5.50;3.70;;;;;;;23.62;39.29;95234.56;4972161;28;20486;-70
2021/05/22 04:07:58;;;;;;;6.88;3.38;;;;;;;23.64;40.07;95234.81;4977229;28;20421;-70
2021/05/22 04:10:24;;;;;;;5.32;3.75;;;;;;;23.66;39.28;95224.16;4977289;28;20027;-71
2021/05/22 04:12:49;;;;;;;4.55;3.25;;;;;;;23.70;39.67;95219.16;4972313;28;20026;-70
2021/05/22 04:15:15;;;;;;;5.22;3.50;;;;;;;23.55;39.68;95196.94;4981543;28;20026;-70
2021/05/22 04:17:40;;;;;;;5.15;3.78;;;;;;;23.78;40.09;95214.66;4980687;28;20034;-70
2021/05/22 04:20:06;;;;;;;5.07;3.70;;;;;;;23.80;39.66;95206.72;4980665;28;20015;-70
2021/05/22 04:22:32;;;;;;;4.95;3.63;;;;;;;23.84;39.82;95212.63;4979893;28;20077;-70
2021/05/22 04:24:57;;;;;;;5.80;3.88;;;;;;;23.87;39.33;95213.09;4979891;28;20042;-68
2021/05/22 04:27:22;;;;;;;7.78;4.32;;;;;;;23.90;39.42;95205.88;4978279;28;20022;-69
2021/05/22 04:29:48;;;;;;;8.27;4.45;;;;;;;23.81;39.30;95189.09;4978400;28;20034;-71
2021/05/22 04:32:13;;;;;;;5.30;4.07;;;;;;;23.98;39.70;95223.91;4964272;28;20018;-71
2021/05/22 04:34:39;;;;;;;6.18;3.80;;;;;;;23.88;39.88;95214.59;4960116;28;20633;-71
2021/05/22 04:37:04;;;;;;;4.45;3.60;;;;;;;24.07;39.68;95212.69;4962843;28;20481;-72
2021/05/22 04:39:30;;;;;;;6.47;3.40;;;;;;;24.03;39.58;95193.09;4961871;28;20273;-72
2021/05/22 04:41:55;;;;;;;4.10;3.33;;;;;;;24.44;40.13;95218.34;4963668;28;20030;-74
2021/05/22 04:44:20;;;;;;;4.75;3.38;;;;;;;24.58;39.39;95217.19;4977980;28;20133;-72
2021/05/22 04:46:46;;;;;;;3.95;2.92;;;;;;;24.67;39.13;95211.41;4977561;28;20022;-73
2021/05/22 04:49:11;;;;;;;5.97;3.28;;;;;;;24.83;39.32;95220.13;4971041;28;20089;-73
2021/05/22 04:51:37;;;;;;;5.43;3.47;;;;;;;24.92;39.24;95222.53;4956780;28;20070;-71
2021/05/22 04:54:05;;;;;;;4.90;3.00;;;;;;;24.83;39.25;95231.06;4968425;28;20040;-74
2021/05/22 04:56:30;;;;;;;5.93;2.83;;;;;;;25.08;40.08;95232.56;4941684;29;20027;-74
2021/05/22 04:58:56;;;;;;;4.82;3.15;;;;;;;25.24;39.43;95241.81;4950872;28;20513;-71
2021/05/22 05:01:21;;;;;;;4.03;2.90;;;;;;;25.38;39.71;95230.41;4949988;28;20033;-69
2021/05/22 05:03:46;;;;;;;5.45;3.00;;;;;;;25.36;38.97;95227.47;4983536;28;20426;-72
2021/05/22 05:06:12;;;;;;;3.47;2.92;;;;;;;25.41;39.13;95229.38;4954300;28;20023;-74
2021/05/22 05:08:37;;;;;;;5.90;3.22;;;;;;;25.61;38.85;95231.63;4953945;28;20026;-70
2021/05/22 05:11:03;;;;;;;6.25;3.22;;;;;;;25.59;38.72;95228.66;4937496;28;20523;-71
2021/05/22 05:13:30;;;;;;;4.60;2.88;;;;;;;25.64;38.84;95247.00;4953394;28;20042;-73
2021/05/22 05:15:55;;;;;;;5.03;2.40;;;;;;;25.77;39.27;95249.81;4949946;29;20035;-70
2021/05/22 05:18:21;;;;;;;4.95;2.70;;;;;;;25.87;38.32;95254.38;4966179;28;20030;-70
2021/05/22 05:20:46;;;;;;;5.32;3.00;;;;;;;25.84;38.95;95258.91;4962164;28;20024;-71
2021/05/22 05:23:12;;;;;;;3.83;2.78;;;;;;;25.93;38.41;95269.47;4960058;28;20478;-70
2021/05/22 05:25:37;;;;;;;3.85;2.88;;;;;;;25.89;38.94;95269.03;4960547;28;20030;-71
2021/05/22 05:28:03;;;;;;;3.55;2.92;;;;;;;26.02;38.83;95277.31;4944962;28;20093;-69
2021/05/22 05:30:28;;;;;;;6.47;2.80;;;;;;;25.95;38.62;95261.47;4958292;28;20023;-70
2021/05/22 05:32:54;;;;;;;3.85;2.47;;;;;;;26.15;38.80;95291.03;4956982;28;20024;-70
2021/05/22 05:35:19;;;;;;;2.92;2.40;;;;;;;26.09;38.53;95276.69;4960929;28;20506;-70
2021/05/22 05:37:45;;;;;;;4.88;2.53;;;;;;;26.26;38.47;95285.38;4966081;28;20044;-69
2021/05/22 05:40:10;;;;;;;4.03;2.90;;;;;;;26.28;38.05;95288.38;4971094;28;20042;-71
2021/05/22 05:42:36;;;;;;;3.15;2.63;;;;;;;26.28;38.76;95283.63;4973818;28;20027;-71
2021/05/22 05:45:03;;;;;;;3.03;2.50;;;;;;;26.35;38.17;95271.31;4976820;28;20031;-70
2021/05/22 05:47:28;;;;;;;3.03;2.50;;;;;;;26.43;38.59;95283.16;4979442;28;20136;-72
2021/05/22 05:49:54;;;;;;;4.07;2.83;;;;;;;26.43;38.74;95283.16;4974012;28;20034;-69
2021/05/22 05:52:20;;;;;;;3.63;2.47;;;;;;;26.46;38.17;95282.13;4958722;28;20019;-70
2021/05/22 05:54:45;;;;;;;3.28;2.33;;;;;;;26.48;38.68;95274.84;4975141;28;20077;-71
2021/05/22 05:57:11;;;;;;;3.90;2.38;;;;;;;26.55;38.77;95285.19;4971633;28;20089;-71
2021/05/22 05:59:36;;;;;;;3.70;2.53;;;;;;;26.49;37.91;95275.59;4970422;28;20027;-71
2021/05/22 06:02:01;;;;;;;4.38;2.50;;;;;;;26.65;38.12;95299.22;4949807;29;20031;-70
2021/05/22 06:04:28;;;;;;;2.80;2.50;;;;;;;26.66;38.06;95289.75;4962723;28;20450;-69
2021/05/22 06:06:53;;;;;;;3.35;2.47;;;;;;;26.65;37.96;95293.72;4970535;28;20041;-71
2021/05/22 06:09:19;;;;;;;2.90;2.22;;;;;;;26.65;38.35;95289.00;4945746;29;20105;-76
2021/05/22 06:11:45;;;;;;;3.17;2.33;;;;;;;26.76;38.29;95295.03;4970981;28;20037;-72
2021/05/22 06:14:20;;;;;;;3.60;2.55;;;;;;;26.68;37.89;95292.69;4969776;28;20034;-74
2021/05/22 06:16:46;;;;;;;4.85;2.50;;;;;;;26.79;38.29;95315.91;4954584;28;20093;-75
2021/05/22 06:19:11;;;;;;;2.88;2.40;;;;;;;26.80;38.66;95322.88;4980515;28;20026;-73
2021/05/22 06:21:38;;;;;;;2.88;2.30;;;;;;;26.82;38.30;95325.81;4951722;28;20419;-71
2021/05/22 06:24:07;;;;;;;2.97;2.20;;;;;;;26.85;38.14;95319.28;4969734;28;20109;-75
2021/05/22 06:26:32;;;;;;;3.38;2.40;;;;;;;26.92;38.29;95318.69;4935554;28;20046;-74
2021/05/22 06:28:58;;;;;;;3.10;2.47;;;;;;;26.94;38.11;95321.63;4958288;28;20027;-73
2021/05/22 06:31:23;;;;;;;3.33;2.33;;;;;;;26.86;38.35;95309.81;4962944;28;20542;-73
2021/05/22 06:33:48;;;;;;;3.42;2.58;;;;;;;26.93;38.30;95303.72;4971140;28;20030;-74
2021/05/22 06:36:14;;;;;;;3.72;2.28;;;;;;;27.00;37.97;95308.56;4952983;28;20026;-74
2021/05/22 06:38:39;;;;;;;3.20;2.13;;;;;;;27.10;38.00;95306.91;4973447;28;20049;-73
2021/05/22 06:41:05;;;;;;;2.95;2.30;;;;;;;27.08;37.99;95308.69;4967605;28;20026;-73
2021/05/22 06:43:30;;;;;;;3.55;2.40;;;;;;;27.12;37.95;95315.34;4976267;28;20035;-73
2021/05/22 06:45:58;;;;;;;2.88;2.05;;;;;;;27.21;37.60;95312.16;4957928;28;20096;-73
2021/05/22 06:48:24;;;;;;;3.00;2.40;;;;;;;27.19;38.01;95311.22;4966979;28;20041;-72
2021/05/22 06:50:49;;;;;;;3.08;2.60;;;;;;;27.25;37.55;95307.13;4952625;28;20034;-72
2021/05/22 06:53:15;;;;;;;2.67;2.20;;;;;;;27.21;37.56;95301.19;4951550;28;20503;-72
2021/05/22 06:55:40;;;;;;;2.90;2.28;;;;;;;27.29;37.62;95313.75;4951223;28;20429;-72
2021/05/22 06:58:06;;;;;;;2.60;2.22;;;;;;;27.26;37.69;95303.09;4950381;28;20466;-74
2021/05/22 07:00:32;;;;;;;3.10;2.10;;;;;;;27.37;37.31;95313.88;4952017;28;20052;-73
2021/05/22 07:02:57;;;;;;;2.60;1.90;;;;;;;27.41;37.52;95326.00;4968551;28;20089;-74
2021/05/22 07:05:23;;;;;;;2.92;2.00;;;;;;;27.40;37.58;95329.28;4950974;28;20461;-72
2021/05/22 07:07:48;;;;;;;3.03;2.10;;;;;;;27.44;37.66;95335.16;4951754;28;20019;-72
2021/05/22 07:10:14;;;;;;;3.45;2.30;;;;;;;27.46;37.02;95316.19;4937462;28;20039;-71
2021/05/22 07:12:40;;;;;;;4.45;2.47;;;;;;;27.48;37.27;95324.63;4938267;28;20550;-71
2021/05/22 07:15:09;;;;;;;3.08;2.03;;;;;;;27.46;37.11;95316.19;4934578;29;20033;-72
2021/05/22 07:17:34;;;;;;;2.45;2.10;;;;;;;27.51;37.48;95329.06;4965041;28;20052;-72
2021/05/22 07:20:00;;;;;;;3.05;2.50;;;;;;;27.53;37.16;95332.03;4954889;28;20031;-72
2021/05/22 07:22:25;;;;;;;3.83;2.38;;;;;;;27.61;37.42;95332.84;4957851;28;20023;-71
2021/05/22 07:24:51;;;;;;;3.08;2.20;;;;;;;27.62;37.20;95334.34;4968494;28;20045;-70
2021/05/22 07:27:16;;;;;;;3.03;2.15;;;;;;;27.60;37.40;95318.41;4967140;28;20030;-72
2021/05/22 07:29:45;;;;;;;2.63;2.15;;;;;;;27.65;37.50;95312.06;4952478;28;20114;-72
2021/05/22 07:32:10;;;;;;;2.80;2.22;;;;;;;27.69;37.27;95301.50;4971711;28;20030;-70
2021/05/22 07:34:36;;;;;;;3.17;2.67;;;;;;;27.70;37.39;95285.75;4944776;29;20031;-71
2021/05/22 07:37:01;;;;;;;2.83;1.90;;;;;;;27.71;36.91;95277.00;4960289;28;20043;-72
2021/05/22 07:39:27;;;;;;;3.50;2.05;;;;;;;27.73;37.30;95262.75;4961537;28;20030;-72
2021/05/22 07:41:52;;;;;;;3.05;2.25;;;;;;;27.76;37.19;95262.44;4969108;28;20400;-69
2021/05/22 07:44:18;;;;;;;4.32;1.88;;;;;;;27.75;37.11;95256.19;4974527;28;20502;-70
2021/05/22 07:46:43;;;;;;;3.10;2.10;;;;;;;27.79;37.01;95267.59;4938058;29;20039;-71
2021/05/22 07:49:09;;;;;;;4.10;2.10;;;;;;;27.84;36.96;95263.97;4956743;28;20019;-70
2021/05/22 07:51:34;;;;;;;2.78;2.03;;;;;;;27.84;36.97;95274.94;4956663;28;20027;-72
2021/05/22 07:54:00;;;;;;;2.85;2.20;;;;;;;27.82;36.98;95266.53;4955087;28;20047;-72
2021/05/22 07:56:25;;;;;;;3.67;2.03;;;;;;;27.87;36.94;95257.41;4959314;28;20022;-73
2021/05/22 07:58:51;;;;;;;2.95;2.05;;;;;;;27.85;36.95;95254.47;4971337;28;20038;-73
2021/05/22 08:01:16;;;;;;;2.60;2.10;;;;;;;27.91;36.70;95252.34;4954229;28;20201;-74
2021/05/22 08:03:42;;;;;;;2.58;1.85;;;;;;;27.91;36.89;95252.34;4966749;28;20055;-73
2021/05/22 08:06:07;;;;;;;2.90;2.10;;;;;;;27.90;37.04;95256.34;4969576;28;20034;-72
2021/05/22 08:08:33;;;;;;;2.55;2.10;;;;;;;27.93;36.74;95271.03;4968337;28;20093;-72
2021/05/22 08:10:58;;;;;;;3.00;2.20;;;;;;;27.92;36.75;95281.28;4968701;28;20086;-73
2021/05/22 08:13:28;;;;;;;2.80;1.90;;;;;;;27.94;36.81;95284.22;4951367;28;20026;-74
2021/05/22 08:15:53;;;;;;;2.80;2.10;;;;;;;27.90;35.93;95288.56;4968546;28;20031;-74
2021/05/22 08:18:19;;;;;;;2.47;1.80;;;;;;;28.04;36.39;95277.03;4967423;28;20166;-73
2021/05/22 08:20:44;;;;;;;2.63;1.83;;;;;;;27.99;36.90;95280.59;4969064;28;20039;-71
2021/05/22 08:23:10;;;;;;;2.35;1.88;;;;;;;28.13;36.29;95279.34;4968582;28;20127;-72
2021/05/22 08:25:35;;;;;;;6.80;2.28;;;;;;;28.01;37.14;95258.88;4970559;28;20085;-73
2021/05/22 08:28:01;;;;;;;2.50;2.03;;;;;;;28.07;36.73;95259.47;4952613;28;20082;-71
2021/05/22 08:30:26;;;;;;;2.22;1.70;;;;;;;28.04;36.68;95249.56;4968696;28;20498;-72
2021/05/22 08:32:52;;;;;;;2.95;2.17;;;;;;;28.04;36.93;95260.53;4966782;28;20023;-71
2021/05/22 08:35:18;;;;;;;4.45;2.72;;;;;;;28.08;36.37;95255.44;4966567;28;20027;-72
2021/05/22 08:37:43;;;;;;;2.90;2.30;;;;;;;28.09;36.97;95256.94;4968866;28;20539;-72
2021/05/22 08:40:09;;;;;;;4.00;2.42;;;;;;;28.20;36.29;95256.69;4949814;28;20023;-70
2021/05/22 08:42:35;;;;;;;2.47;2.15;;;;;;;28.03;36.44;95264.56;4953229;28;20022;-70
2021/05/22 08:45:10;;;;;;;3.65;2.95;;;;;;;28.12;35.52;95255.16;4950809;28;20050;-69
2021/05/22 08:47:36;;;;;;;3.30;2.70;;;;;;;28.00;35.51;95257.38;4967816;28;20156;-70
2021/05/22 08:50:03;;;;;;;3.47;2.58;;;;;;;27.81;35.71;95248.56;4951327;28;20569;-71
2021/05/22 08:52:29;;;;;;;3.00;2.38;;;;;;;27.99;35.01;95247.66;4969718;28;20019;-71
2021/05/22 08:54:54;;;;;;;4.13;2.60;;;;;;;27.89;35.49;95249.41;4948769;28;20034;-69
2021/05/22 08:57:20;;;;;;;4.35;3.08;;;;;;;27.91;35.19;95230.38;4965942;28;20570;-67
2021/05/22 08:59:46;;;;;;;6.72;2.95;;;;;;;28.04;34.53;95248.81;4937891;28;20037;-71
2021/05/22 09:02:17;;;;;;;3.95;2.83;;;;;;;28.05;35.18;95245.53;4962630;28;20032;-71
2021/05/22 09:05:23;;;;;;;5.25;3.10;;;;;;;28.13;33.97;95229.91;4961281;28;20062;-71
2021/05/22 09:07:48;;;;;;;5.55;2.45;;;;;;;28.10;34.46;95230.97;4960003;28;20039;-70
2021/05/22 09:10:20;;;;;;;3.90;2.78;;;;;;;28.10;33.12;95225.47;4967172;28;20081;-71
2021/05/22 09:12:47;;;;;;;4.43;2.90;;;;;;;28.06;33.64;95224.31;4970381;28;20122;-71
2021/05/22 09:15:20;;;;;;;3.25;2.65;;;;;;;28.01;33.29;95223.16;4970184;28;20129;-71
2021/05/22 09:17:50;;;;;;;5.65;2.40;;;;;;;28.02;33.50;95241.09;4953094;28;20039;-71
2021/05/22 09:20:25;;;;;;;3.40;2.90;;;;;;;28.02;32.69;95238.34;4937342;28;20037;-70
2021/05/22 09:23:00;;;;;;;3.38;2.42;;;;;;;28.01;32.90;95239.66;4969768;28;20030;-70
2021/05/22 09:25:27;;;;;;;5.07;2.90;;;;;;;27.98;33.16;95223.47;4969124;28;20023;-71
2021/05/22 09:27:53;;;;;;;5.43;2.78;;;;;;;28.02;32.54;95229.38;4926928;29;20525;-71
2021/05/22 09:30:19;;;;;;;4.97;2.85;;;;;;;28.06;32.29;95225.03;4965574;28;20085;-71
2021/05/22 09:32:45;;;;;;;6.78;2.60;;;;;;;28.03;31.98;95208.91;4947188;28;20149;-71
2021/05/22 09:35:10;;;;;;;4.97;2.50;;;;;;;28.01;31.62;95208.69;4967288;28;20031;-70
2021/05/22 09:37:46;;;;;;;5.28;2.60;;;;;;;27.91;31.80;95213.91;4948213;28;20418;-71
2021/05/22 09:40:17;;;;;;;4.28;2.45;;;;;;;27.93;32.10;95210.63;4969542;28;20034;-69
2021/05/22 09:42:42;;;;;;;7.28;2.83;;;;;;;27.99;31.72;95208.50;4936672;28;20046;-70
2021/05/22 09:45:43;;;;;;;4.45;2.38;;;;;;;27.93;31.86;95189.41;4958048;28;20019;-71
2021/05/22 09:48:15;;;;;;;3.30;2.40;;;;;;;28.05;31.21;95200.84;4966424;28;20031;-71
2021/05/22 09:50:41;;;;;;;4.68;2.50;;;;;;;28.05;31.30;95196.09;4966835;28;20121;-70
2021/05/22 09:53:22;;;;;;;5.18;2.50;;;;;;;28.00;31.65;95207.97;4967829;28;20031;-71
2021/05/22 09:56:10;;;;;;;5.68;2.85;;;;;;;28.00;32.06;95196.97;4950158;28;20109;-70
2021/05/22 09:58:36;;;;;;;4.03;2.67;;;;;;;27.97;32.07;95200.78;4966866;28;20039;-71
2021/05/22 10:01:01;;;;;;;2.70;2.15;;;;;;;27.99;32.02;95198.22;4948042;28;20483;-71
2021/05/22 10:03:27;;;;;;;4.25;2.35;;;;;;;28.00;32.02;95194.22;4930741;28;20046;-71
2021/05/22 10:05:53;;;;;;;3.97;2.30;;;;;;;27.97;32.23;95195.31;4947812;28;20023;-71
2021/05/22 10:08:19;;;;;;;3.53;2.38;;;;;;;27.97;32.09;95173.34;4948633;28;20023;-71
2021/05/22 10:10:46;;;;;;;3.38;2.20;;;;;;;27.93;31.99;95167.44;4949088;28;20035;-70
2021/05/22 10:13:15;;;;;;;7.00;2.40;;;;;;;27.94;31.72;95152.44;4948115;28;20561;-70
2021/05/22 10:15:42;;;;;;;4.80;2.25;;;;;;;27.92;32.00;95149.50;4945842;28;20126;-71
2021/05/22 10:18:07;;;;;;;2.28;1.85;;;;;;;27.98;31.58;95152.84;4931634;28;20415;-70
2021/05/22 10:20:32;;;;;;;3.85;2.17;;;;;;;28.07;31.34;95148.88;4949009;28;20019;-70
2021/05/22 10:22:58;;;;;;;2.70;2.08;;;;;;;28.09;30.71;95136.13;4963571;28;20506;-70
2021/05/22 10:25:23;;;;;;;3.08;2.10;;;;;;;28.08;30.75;95139.38;4945675;28;20081;-70
2021/05/22 10:27:49;;;;;;;4.95;2.10;;;;;;;28.06;30.38;95131.69;4947356;28;20027;-70
2021/05/22 10:30:16;;;;;;;4.25;2.33;;;;;;;28.08;30.35;95129.13;4944602;28;20119;-70
2021/05/22 10:32:42;;;;;;;3.90;1.88;;;;;;;27.95;30.24;95110.00;4945630;28;20522;-70
2021/05/22 10:35:12;;;;;;;4.80;2.33;;;;;;;28.01;30.40;95113.34;4942999;28;20024;-69
2021/05/22 10:37:48;;;;;;;;;;;;;;;28.14;30.84;95110.53;4946847;28;20039;-70
2021/05/22 10:40:16;;;;;;;3.33;1.90;;;;;;;28.10;30.77;95104.66;4936200;28;19910;-73
2021/05/22 10:42:53;;;;;;;4.03;2.15;;;;;;;28.01;30.99;95096.88;4939551;28;20046;-75
2021/05/22 10:45:35;;;;;;;4.10;1.90;;;;;;;28.11;31.53;95092.38;4943479;29;20028;-74
2021/05/22 10:48:02;;;;;;;3.95;2.15;;;;;;;28.10;31.13;95077.19;4940792;28;20533;-71
2021/05/22 10:50:51;;;;;;;4.15;1.90;;;;;;;28.21;31.01;95092.63;4944007;29;20036;-74
2021/05/22 10:53:30;;;;;;;5.35;2.08;;;;;;;28.23;31.12;95095.56;4938926;29;20030;-74
2021/05/22 10:56:22;;;;;;;3.13;1.80;;;;;;;28.23;31.40;95091.53;4947845;28;20408;-71
2021/05/22 10:59:07;;;;;;;4.50;1.77;;;;;;;28.27;31.79;95085.72;4942538;28;20511;-69
2021/05/22 11:01:35;;;;;;;4.55;1.92;;;;;;;28.12;32.07;95063.66;4948351;28;20070;-71
2021/05/22 11:04:08;;;;;;;4.82;1.75;;;;;;;28.29;32.20;95072.91;4944934;28;20066;-72
2021/05/22 11:07:05;;;;;;;2.92;1.90;;;;;;;28.31;31.92;95069.59;4955015;28;20098;-72
2021/05/22 11:09:38;;;;;;;3.83;1.90;;;;;;;28.29;32.02;95072.16;4953920;28;20513;-72
2021/05/22 11:12:10;;;;;;;4.47;2.00;;;;;;;28.35;31.92;95070.00;4946632;28;20031;-70
2021/05/22 11:14:47;;;;;;;2.78;2.28;;;;;;;28.41;31.87;95074.06;4951720;28;20045;-70
2021/05/22 11:17:22;;;;;;;4.68;2.40;;;;;;;28.41;32.41;95062.34;4955891;28;20122;-70
2021/05/22 11:20:03;;;;;;;6.43;2.28;;;;;;;28.41;32.30;95067.84;4954113;28;20561;-70
2021/05/22 11:22:58;;;;;;;4.15;1.67;;;;;;;28.38;32.51;95069.66;4945282;28;20035;-71
2021/05/22 11:25:24;;;;;;;3.90;1.90;;;;;;;28.41;32.01;95067.84;4949446;28;20094;-71
2021/05/22 11:27:52;;;;;;;3.20;1.73;;;;;;;28.42;32.18;95064.56;4950389;28;20035;-70
2021/05/22 11:30:21;;;;;;;4.25;1.70;;;;;;;28.47;32.79;95076.66;4948209;28;20082;-71
2021/05/22 11:32:49;;;;;;;2.85;1.98;;;;;;;28.46;32.38;95064.97;4951331;28;20015;-71
2021/05/22 11:35:36;;;;;;;3.47;2.13;;;;;;;28.47;32.50;95071.19;4950631;28;20038;-71